Search for airport 
image banner adimage banner adimage banner ad
image banner ad

14CA - Hoag Memorial Hospital Presbyterian

Located in Newport Beach, United States

ICAO - 14CA, IATA -

Data provided by Airmate  

General information

Coordinates: N33°37'31" W117°55'51"
Elevation is 94 feet MSL.
Magnetic variation is 14° East
View others Airports in California

Operational data

Special qualification required
Current time UTC:
Current local time:
METAR: KSNA 210253Z 21007KT 10SM CLR 22/17 A2993 RMK AO2 SLP133 T02170172 53015
TAF: KSNA 202324Z 2100/2124 21010KT P6SM SKC FM210200 VRB04KT P6SM SCT010 FM210900 VRB04KT P6SM BKN010 FM211400 VRB04KT P6SM FEW010 FM212000 23008KT P6SM SKC
View NOTAMs / SUP AIP / TFR affecting this airport [VIEW]
Communications frequencies: [VIEW]

Runways:

Airport contact information

Address: Newport Beach United States

Satellite view of 14CA